Canfield, Ohio
Current Conditions -  °F | °C
As of 10:51 AM on Friday 24 Oct 2014 (Local Time) from KYNG Reporting Station
Broken Clouds Broken Clouds  
Wind Chill: 50°   Ceiling: 25000
Heat Index: 50°   Visibility: 10mi
Dew Point: 44°   Wind: 5mph
Humidity: 80%   Direction: 270°W
Pressure: 30.09"   Gusts: NA
Location:  41.02°N, 80.76°W
Report Text: KYNG 241451Z 27004KT 10SM BKN250 10/07 A3009 RMK AO2 SLP193 T01000067 50001
Loading
Personal Weather Stations






























Interactive Weather Map
Tropical Storm Tracking
New forecast layout! Learn more

10-Day Weather Forecast

Advertisements
Track Severe Weather on mobile